createdAt,value
2018-12-17T00:00:45.082Z,4.6
2018-12-17T00:01:46.658Z,4.6
2018-12-17T00:02:48.053Z,4.6
2018-12-17T00:03:49.449Z,4.6
2018-12-17T00:04:50.980Z,4.6
2018-12-17T00:05:52.379Z,4.6
2018-12-17T00:16:47.216Z,4.7
2018-12-17T00:17:48.600Z,4.6
2018-12-17T00:22:47.710Z,4.6
2018-12-17T00:23:49.178Z,4.7
2018-12-17T00:24:50.790Z,4.6
2018-12-17T00:25:52.357Z,4.6
2018-12-17T00:26:54.258Z,4.6
2018-12-17T00:27:55.990Z,4.6
2018-12-17T00:28:57.940Z,4.6
2018-12-17T00:29:59.366Z,4.6
2018-12-17T00:31:00.830Z,4.6
2018-12-17T00:32:02.527Z,4.6
2018-12-17T00:33:03.979Z,4.6
2018-12-17T00:34:05.465Z,4.8
2018-12-17T00:35:07.072Z,4.8
2018-12-17T00:36:08.521Z,4.7
2018-12-17T00:37:10.068Z,4.7
2018-12-17T00:38:11.475Z,4.8
2018-12-17T00:39:12.949Z,4.8
2018-12-17T00:40:14.338Z,4.8
2018-12-17T00:41:15.804Z,4.7
2018-12-17T00:42:17.216Z,4.8
2018-12-17T00:43:18.711Z,4.8
2018-12-17T00:44:20.118Z,4.7
2018-12-17T00:45:21.545Z,4.8
2018-12-17T00:46:23.025Z,4.7
2018-12-17T00:47:24.441Z,4.9
2018-12-17T00:48:25.832Z,4.7
2018-12-17T00:49:27.345Z,4.7
2018-12-17T00:50:28.748Z,4.8
2018-12-17T00:51:30.212Z,4.8
2018-12-17T00:52:31.653Z,4.8
2018-12-17T00:53:33.330Z,4.8
2018-12-17T00:54:34.829Z,4.7
2018-12-17T00:55:36.238Z,4.8
2018-12-17T00:56:38.408Z,4.8
2018-12-17T00:57:39.838Z,4.7
2018-12-17T00:58:41.291Z,4.8
2018-12-17T00:59:42.799Z,4.8
2018-12-17T01:00:44.225Z,4.8
2018-12-17T01:01:45.887Z,4.8
2018-12-17T01:02:47.372Z,4.8
2018-12-17T01:03:48.978Z,4.8
2018-12-17T01:04:50.380Z,4.9
2018-12-17T01:05:52.079Z,4.7
2018-12-17T01:06:53.513Z,4.7
2018-12-17T01:07:55.162Z,4.8
2018-12-17T01:08:56.590Z,4.8
2018-12-17T01:09:58.072Z,4.7
2018-12-17T01:10:59.686Z,4.9
2018-12-17T01:12:01.273Z,4.8
2018-12-17T01:13:02.749Z,4.7
2018-12-17T01:14:04.430Z,4.8
2018-12-17T01:15:05.891Z,4.7
2018-12-17T01:16:07.407Z,4.9
2018-12-17T01:17:08.975Z,4.9
2018-12-17T01:18:10.420Z,4.8
2018-12-17T01:19:11.916Z,4.9
2018-12-17T01:20:13.453Z,4.8
2018-12-17T01:21:14.954Z,4.9
2018-12-17T01:22:16.409Z,4.8
2018-12-17T01:23:18.011Z,4.8
2018-12-17T01:24:19.999Z,4.8
2018-12-17T01:25:22.248Z,4.8
2018-12-17T01:26:23.766Z,4.8
2018-12-17T01:27:25.527Z,4.8
2018-12-17T01:28:27.108Z,4.8
2018-12-17T01:29:28.596Z,4.8
2018-12-17T01:30:30.810Z,4.9
2018-12-17T01:31:32.289Z,4.8
2018-12-17T01:32:33.832Z,4.9
2018-12-17T01:33:35.309Z,4.9
2018-12-17T01:34:36.902Z,4.8
2018-12-17T01:35:38.406Z,4.8
2018-12-17T01:36:40.082Z,4.8
2018-12-17T01:37:41.666Z,4.8
2018-12-17T01:38:43.300Z,4.8
2018-12-17T01:39:45.198Z,4.8
2018-12-17T01:40:46.962Z,4.8
2018-12-17T01:41:48.699Z,4.7
2018-12-17T01:42:50.181Z,4.6
2018-12-17T01:43:51.678Z,4.5
2018-12-17T01:44:53.229Z,4.4
2018-12-17T01:45:54.737Z,4.4
2018-12-17T01:46:56.261Z,4.4
2018-12-17T01:47:57.884Z,4.3
2018-12-17T01:48:59.381Z,4.2
2018-12-17T01:50:00.881Z,4.2
2018-12-17T01:51:02.499Z,4.1
2018-12-17T01:52:04.009Z,4.0
2018-12-17T01:53:05.538Z,4.0
2018-12-17T01:54:07.222Z,4.0
2018-12-17T01:55:08.736Z,4.0
2018-12-17T01:56:10.191Z,4.0
2018-12-17T01:57:11.639Z,4.0
2018-12-17T01:58:13.119Z,4.0
2018-12-17T01:59:14.802Z,3.8
2018-12-17T02:00:16.274Z,3.9
2018-12-17T02:01:17.844Z,3.8
2018-12-17T02:02:19.304Z,3.8
2018-12-17T02:03:20.982Z,3.7
2018-12-17T02:04:22.456Z,3.8
2018-12-17T02:05:23.997Z,3.8
2018-12-17T02:06:25.434Z,3.7
2018-12-17T02:07:27.082Z,3.7
2018-12-17T02:08:28.481Z,3.6
2018-12-17T02:09:29.948Z,3.7
2018-12-17T02:10:31.331Z,3.6
2018-12-17T02:11:32.832Z,3.7
2018-12-17T02:12:34.249Z,3.6
2018-12-17T02:13:35.681Z,3.7
2018-12-17T02:14:37.109Z,3.6
2018-12-17T02:15:38.552Z,3.5
2018-12-17T02:16:40.116Z,3.6
2018-12-17T02:17:41.537Z,3.6
2018-12-17T02:18:43.016Z,3.5
2018-12-17T02:19:44.574Z,3.5
2018-12-17T02:20:46.051Z,3.5
2018-12-17T02:21:47.472Z,3.5
2018-12-17T02:22:49.128Z,3.6
2018-12-17T02:23:50.565Z,3.5
2018-12-17T02:24:51.992Z,3.5
2018-12-17T02:25:53.616Z,3.5
2018-12-17T02:26:55.151Z,3.5
2018-12-17T02:27:56.736Z,3.5
2018-12-17T02:28:58.169Z,3.4
2018-12-17T02:29:59.948Z,3.4
2018-12-17T02:31:01.357Z,3.4
2018-12-17T02:32:03.072Z,3.4
2018-12-17T02:33:04.485Z,3.4
2018-12-17T02:34:05.974Z,3.4
2018-12-17T02:35:07.436Z,3.4
2018-12-17T02:36:08.868Z,3.3
2018-12-17T02:37:10.911Z,3.3
2018-12-17T02:38:12.606Z,3.2
2018-12-17T02:39:14.074Z,3.3
2018-12-17T02:40:15.670Z,3.2
2018-12-17T02:41:17.120Z,3.2
2018-12-17T02:42:18.748Z,3.2
2018-12-17T02:43:20.219Z,3.2
2018-12-17T02:44:21.831Z,3.2
2018-12-17T02:45:23.271Z,3.2
2018-12-17T02:46:24.930Z,3.1
2018-12-17T02:47:26.343Z,3.2
2018-12-17T02:48:28.023Z,3.1
2018-12-17T02:49:29.449Z,3.1
2018-12-17T02:50:31.100Z,3.1
2018-12-17T02:51:32.517Z,3.1
2018-12-17T02:52:34.075Z,3.0
2018-12-17T02:53:35.612Z,3.0
2018-12-17T02:54:37.074Z,3.0
2018-12-17T02:55:38.513Z,3.0
2018-12-17T02:56:40.169Z,3.1
2018-12-17T02:57:41.586Z,3.0
2018-12-17T02:58:44.097Z,3.0
2018-12-17T02:59:44.643Z,3.0
2018-12-17T03:00:46.098Z,3.0
2018-12-17T03:01:47.721Z,3.0
2018-12-17T03:02:49.142Z,3.0
2018-12-17T03:03:50.581Z,3.0
2018-12-17T03:04:52.041Z,3.0
2018-12-17T03:05:53.504Z,3.1
2018-12-17T03:06:54.950Z,2.9
2018-12-17T03:07:56.559Z,3.0
2018-12-17T03:08:58.042Z,3.0
2018-12-17T03:09:59.485Z,2.9
2018-12-17T03:11:01.151Z,3.0
2018-12-17T03:12:02.586Z,3.0
2018-12-17T03:13:04.215Z,2.9
2018-12-17T03:14:05.688Z,2.9
2018-12-17T03:15:07.310Z,2.9
2018-12-17T03:16:08.707Z,2.9
2018-12-17T03:17:10.186Z,2.9
2018-12-17T03:18:11.782Z,2.9
2018-12-17T03:19:13.205Z,3.0
2018-12-17T03:20:14.740Z,3.0
2018-12-17T03:21:16.401Z,3.0
2018-12-17T03:22:17.723Z,2.9
2018-12-17T03:23:19.214Z,2.9
2018-12-17T03:24:20.656Z,2.9
2018-12-17T03:25:22.355Z,3.0
2018-12-17T03:26:23.806Z,3.0
2018-12-17T03:27:25.389Z,3.0
2018-12-17T03:28:26.843Z,3.0
2018-12-17T03:29:28.460Z,3.0
2018-12-17T03:30:29.889Z,3.1
2018-12-17T03:31:31.572Z,3.0
2018-12-17T03:32:33.052Z,3.1
2018-12-17T03:33:34.648Z,3.1
2018-12-17T03:34:36.097Z,3.1
2018-12-17T03:35:37.700Z,3.0
2018-12-17T03:36:39.154Z,3.1
2018-12-17T03:37:40.658Z,3.0
2018-12-17T03:38:42.237Z,3.1
2018-12-17T03:39:43.661Z,3.1
2018-12-17T03:40:45.141Z,3.2
2018-12-17T03:41:46.803Z,3.2
2018-12-17T03:42:48.241Z,3.2
2018-12-17T03:43:49.686Z,3.2
2018-12-17T03:44:51.314Z,3.2
2018-12-17T03:45:52.769Z,3.2
2018-12-17T03:46:54.240Z,3.2
2018-12-17T03:47:55.846Z,3.2
2018-12-17T03:48:57.299Z,3.2
2018-12-17T03:49:58.806Z,3.2
2018-12-17T03:51:00.413Z,3.2
2018-12-17T03:52:01.890Z,3.2
2018-12-17T03:53:03.393Z,3.2
2018-12-17T03:54:04.867Z,3.3
2018-12-17T03:55:06.325Z,3.2
2018-12-17T03:56:07.985Z,3.2
2018-12-17T03:57:09.424Z,3.2
2018-12-17T03:58:11.059Z,3.2
2018-12-17T03:59:12.505Z,3.2
2018-12-17T04:00:14.366Z,3.2
2018-12-17T04:01:16.102Z,3.3
2018-12-17T04:02:17.567Z,3.2
2018-12-17T04:03:19.195Z,3.2
2018-12-17T04:04:20.647Z,3.2
2018-12-17T04:05:22.284Z,3.2
2018-12-17T04:06:23.825Z,3.2
2018-12-17T04:07:25.266Z,3.2
2018-12-17T04:08:26.740Z,3.2
2018-12-17T04:09:28.446Z,3.1
2018-12-17T04:10:29.765Z,3.1
2018-12-17T04:11:31.179Z,3.1
2018-12-17T04:12:32.659Z,3.1
2018-12-17T04:13:34.081Z,3.1
2018-12-17T04:14:35.761Z,3.1
2018-12-17T04:15:37.183Z,3.1
2018-12-17T04:16:38.841Z,3.1
2018-12-17T04:17:40.322Z,3.0
2018-12-17T04:18:41.984Z,3.1
2018-12-17T04:19:43.485Z,3.0
2018-12-17T04:20:45.025Z,3.1
2018-12-17T04:21:46.445Z,3.0
2018-12-17T04:22:48.062Z,2.9
2018-12-17T04:23:49.510Z,3.0
2018-12-17T04:24:51.179Z,2.9
2018-12-17T04:25:52.625Z,2.9
2018-12-17T04:26:54.270Z,2.9
2018-12-17T04:27:55.985Z,2.9
2018-12-17T04:28:57.534Z,2.8
2018-12-17T04:29:59.013Z,2.8
2018-12-17T04:31:00.596Z,2.9
2018-12-17T04:32:02.040Z,2.8
2018-12-17T04:33:03.514Z,2.8
2018-12-17T04:34:05.153Z,2.8
2018-12-17T04:35:06.572Z,2.7
2018-12-17T04:36:07.988Z,2.7
2018-12-17T04:37:09.460Z,2.7
2018-12-17T04:38:10.908Z,2.8
2018-12-17T04:39:12.559Z,2.7
2018-12-17T04:40:14.523Z,2.8
2018-12-17T04:41:16.090Z,2.7
2018-12-17T04:42:17.763Z,2.7
2018-12-17T04:43:19.343Z,2.8
2018-12-17T04:44:21.008Z,2.7
2018-12-17T04:45:22.661Z,2.7
2018-12-17T04:46:24.140Z,2.7
2018-12-17T04:47:25.725Z,2.7
2018-12-17T04:48:27.191Z,2.7
2018-12-17T04:49:29.271Z,2.7
2018-12-17T04:50:31.046Z,2.7
2018-12-17T04:51:32.985Z,2.7
2018-12-17T04:52:34.474Z,2.7
2018-12-17T04:53:35.942Z,2.7
2018-12-17T04:54:37.609Z,2.7
2018-12-17T04:55:39.182Z,2.6
2018-12-17T04:56:40.712Z,2.7
2018-12-17T04:57:42.539Z,2.7
2018-12-17T04:58:44.286Z,2.6
2018-12-17T04:59:45.892Z,2.7
2018-12-17T05:00:47.348Z,2.7
2018-12-17T05:01:49.031Z,2.8
2018-12-17T05:02:50.475Z,2.7
2018-12-17T05:03:51.909Z,2.8
2018-12-17T05:04:53.579Z,2.9
2018-12-17T05:05:55.030Z,2.9
2018-12-17T05:06:56.479Z,3.0
2018-12-17T05:07:58.210Z,3.0
2018-12-17T05:08:59.647Z,3.1
2018-12-17T05:10:01.179Z,3.1
2018-12-17T05:11:02.970Z,3.1
2018-12-17T05:12:04.478Z,3.2
2018-12-17T05:13:06.198Z,3.2
2018-12-17T05:14:07.804Z,3.2
2018-12-17T05:15:09.284Z,3.2
2018-12-17T05:16:10.878Z,3.3
2018-12-17T05:17:12.343Z,3.2
2018-12-17T05:18:13.963Z,3.2
2018-12-17T05:19:15.417Z,3.3
2018-12-17T05:20:17.062Z,3.3
2018-12-17T05:21:18.499Z,3.3
2018-12-17T05:22:20.119Z,3.3
2018-12-17T05:23:21.531Z,3.4
2018-12-17T05:24:23.262Z,3.3
2018-12-17T05:25:24.692Z,3.4
2018-12-17T05:26:26.301Z,3.4
2018-12-17T05:27:27.725Z,3.4
2018-12-17T05:28:29.180Z,3.4
2018-12-17T05:29:30.817Z,3.5
2018-12-17T05:30:32.465Z,3.4
2018-12-17T05:31:34.858Z,3.3
2018-12-17T05:32:36.586Z,3.4
2018-12-17T05:33:38.018Z,3.3
2018-12-17T05:34:39.818Z,3.3
2018-12-17T05:35:41.234Z,3.3
2018-12-17T05:36:42.955Z,3.3
2018-12-17T05:37:44.418Z,3.3
2018-12-17T05:38:46.062Z,3.3
2018-12-17T05:39:47.649Z,3.3
2018-12-17T05:40:49.359Z,3.2
2018-12-17T05:41:50.846Z,3.2
2018-12-17T05:42:52.428Z,3.3
2018-12-17T05:43:53.885Z,3.3
2018-12-17T05:44:55.312Z,3.4
2018-12-17T05:45:56.941Z,3.3
2018-12-17T05:46:58.393Z,3.3
2018-12-17T05:47:59.828Z,3.3
2018-12-17T05:49:01.498Z,3.4
2018-12-17T05:50:02.922Z,3.3
2018-12-17T05:51:04.553Z,3.3
2018-12-17T05:52:06.005Z,3.3
2018-12-17T05:53:07.686Z,3.4
2018-12-17T05:54:09.180Z,3.5
2018-12-17T05:55:10.638Z,3.4
2018-12-17T05:56:12.371Z,3.4
2018-12-17T05:57:13.839Z,3.4
2018-12-17T05:58:15.292Z,3.4
2018-12-17T05:59:16.892Z,3.3
2018-12-17T06:00:18.358Z,3.4
2018-12-17T06:01:19.966Z,3.5
2018-12-17T06:02:21.390Z,3.5
2018-12-17T06:03:23.062Z,3.5
2018-12-17T06:04:24.525Z,3.5
2018-12-17T06:05:25.948Z,3.6
2018-12-17T06:06:27.609Z,3.7
2018-12-17T06:07:29.080Z,3.6
2018-12-17T06:08:30.514Z,3.7
2018-12-17T06:09:32.116Z,3.7
2018-12-17T06:10:33.583Z,3.8
2018-12-17T06:11:35.043Z,3.8
2018-12-17T06:12:36.635Z,3.8
2018-12-17T06:13:38.089Z,3.9
2018-12-17T06:14:39.523Z,3.9
2018-12-17T06:15:41.148Z,3.9
2018-12-17T06:16:42.641Z,4.0
2018-12-17T06:17:44.280Z,3.9
2018-12-17T06:18:45.745Z,4.0
2018-12-17T06:19:47.195Z,3.9
2018-12-17T06:20:48.873Z,4.0
2018-12-17T06:21:50.284Z,4.0
2018-12-17T06:22:51.752Z,4.0
2018-12-17T06:23:53.287Z,4.0
2018-12-17T06:24:54.727Z,4.0
2018-12-17T06:25:56.190Z,4.1
2018-12-17T06:26:57.826Z,4.1
2018-12-17T06:27:59.264Z,4.0
2018-12-17T06:29:00.667Z,4.1
2018-12-17T06:30:02.346Z,4.0
2018-12-17T06:31:03.830Z,4.1
2018-12-17T06:32:05.424Z,4.0
2018-12-17T06:33:06.881Z,4.2
2018-12-17T06:34:08.576Z,4.2
2018-12-17T06:35:09.986Z,4.2
2018-12-17T06:36:11.626Z,4.2
2018-12-17T06:37:13.083Z,4.2
2018-12-17T06:38:14.713Z,4.2
2018-12-17T06:39:16.160Z,4.2
2018-12-17T06:40:17.660Z,4.3
2018-12-17T06:41:19.250Z,4.3
2018-12-17T06:42:20.696Z,4.3
2018-12-17T06:43:22.143Z,4.4
2018-12-17T06:44:23.741Z,4.4
2018-12-17T06:45:25.157Z,4.4
2018-12-17T06:46:26.588Z,4.3
2018-12-17T06:47:28.282Z,4.4
2018-12-17T06:48:30.095Z,4.3
2018-12-17T06:49:31.550Z,4.3
2018-12-17T06:50:33.224Z,4.4
2018-12-17T06:51:34.711Z,4.4
2018-12-17T06:52:36.218Z,4.4
2018-12-17T06:53:37.936Z,4.4
2018-12-17T06:54:39.513Z,4.5
2018-12-17T06:55:40.981Z,4.4
2018-12-17T06:56:42.804Z,4.5
2018-12-17T06:57:44.240Z,4.5
2018-12-17T06:58:45.862Z,4.4
2018-12-17T06:59:47.637Z,4.5
2018-12-17T07:00:49.122Z,4.5
2018-12-17T07:01:50.741Z,4.6
2018-12-17T07:02:52.157Z,4.6
2018-12-17T07:03:53.790Z,4.5
2018-12-17T07:04:55.235Z,4.5
2018-12-17T07:05:56.875Z,4.6
2018-12-17T07:06:58.326Z,4.6
2018-12-17T07:07:59.958Z,4.6
2018-12-17T07:09:01.413Z,4.6
2018-12-17T07:10:02.876Z,4.6
2018-12-17T07:11:04.492Z,4.6
2018-12-17T07:12:05.945Z,4.6
2018-12-17T07:13:07.416Z,4.7
2018-12-17T07:14:09.008Z,4.7
2018-12-17T07:15:10.427Z,4.7
2018-12-17T07:16:12.557Z,4.6
2018-12-17T07:17:14.271Z,4.7
2018-12-17T07:18:16.266Z,4.6
2018-12-17T07:19:17.871Z,4.6
2018-12-17T07:20:19.847Z,4.7
2018-12-17T07:21:21.557Z,4.7
2018-12-17T07:22:23.419Z,4.6
2018-12-17T07:23:24.866Z,4.7
2018-12-17T07:24:26.495Z,4.7
2018-12-17T07:25:27.997Z,4.8
2018-12-17T07:26:29.503Z,4.8
2018-12-17T07:27:31.253Z,4.7
2018-12-17T07:28:32.715Z,4.8
2018-12-17T07:29:34.184Z,4.8
2018-12-17T07:30:35.763Z,4.8
2018-12-17T07:31:37.185Z,4.7
2018-12-17T07:32:38.641Z,4.8
2018-12-17T07:33:40.293Z,4.8
2018-12-17T07:34:41.787Z,4.8
2018-12-17T07:35:43.248Z,4.8
2018-12-17T07:36:44.810Z,4.8
2018-12-17T07:37:46.245Z,4.8
2018-12-17T07:38:47.663Z,4.8
2018-12-17T07:39:49.328Z,4.8
2018-12-17T07:40:50.802Z,4.9
2018-12-17T07:41:52.235Z,4.9
2018-12-17T07:42:53.876Z,4.8
2018-12-17T07:43:55.349Z,4.9
2018-12-17T07:44:56.771Z,5.0
2018-12-17T07:45:58.366Z,5.0
2018-12-17T07:46:59.835Z,4.9
2018-12-17T07:48:01.486Z,5.0
2018-12-17T07:49:02.957Z,5.0
2018-12-17T07:50:04.656Z,5.0
2018-12-17T07:51:06.050Z,5.1
2018-12-17T07:52:07.572Z,5.0
2018-12-17T07:53:09.295Z,5.1
2018-12-17T07:54:10.757Z,5.2
2018-12-17T07:55:12.184Z,5.1
2018-12-17T07:56:13.822Z,5.1
2018-12-17T07:57:15.276Z,5.2
2018-12-17T07:58:16.906Z,5.2
2018-12-17T07:59:18.357Z,5.2
2018-12-17T08:00:19.809Z,5.2
2018-12-17T08:01:21.450Z,5.2
2018-12-17T08:02:22.899Z,5.2
2018-12-17T08:03:24.322Z,5.2
2018-12-17T08:04:25.953Z,5.3
2018-12-17T08:05:27.411Z,5.3
2018-12-17T08:06:29.002Z,5.3
2018-12-17T08:07:30.510Z,5.3
2018-12-17T08:08:35.426Z,5.4
2018-12-17T08:09:33.507Z,5.3
2018-12-17T08:10:34.936Z,5.4
2018-12-17T08:11:36.650Z,5.4
2018-12-17T08:12:38.089Z,5.4
2018-12-17T08:13:39.523Z,5.4
2018-12-17T08:14:41.178Z,5.4
2018-12-17T08:15:42.642Z,5.5
2018-12-17T08:16:44.290Z,5.6
2018-12-17T08:17:45.747Z,5.4
2018-12-17T08:18:47.358Z,5.5
2018-12-17T08:19:48.785Z,5.4
2018-12-17T08:20:50.235Z,5.4
2018-12-17T08:21:51.903Z,5.5
2018-12-17T08:22:53.347Z,5.6
2018-12-17T08:23:54.802Z,5.5
2018-12-17T08:24:56.385Z,5.6
2018-12-17T08:25:57.950Z,5.6
2018-12-17T08:26:59.393Z,5.6
2018-12-17T08:28:01.154Z,5.6
2018-12-17T08:29:02.593Z,5.6
2018-12-17T08:30:04.321Z,5.6
2018-12-17T08:31:05.671Z,5.6
2018-12-17T08:32:07.118Z,5.6
2018-12-17T08:33:08.557Z,5.7
2018-12-17T08:34:10.170Z,5.7
2018-12-17T08:35:11.592Z,5.7
2018-12-17T08:36:13.054Z,5.7
2018-12-17T08:37:14.710Z,5.7
2018-12-17T08:38:16.169Z,5.7
2018-12-17T08:39:17.792Z,5.8
2018-12-17T08:40:19.270Z,5.8
2018-12-17T08:41:20.916Z,5.8
2018-12-17T08:42:22.470Z,5.8
2018-12-17T08:43:24.170Z,5.8
2018-12-17T08:44:25.612Z,5.8
2018-12-17T08:45:27.233Z,5.9
2018-12-17T08:46:28.726Z,5.8
2018-12-17T08:47:30.354Z,5.8
2018-12-17T08:48:31.805Z,5.8
2018-12-17T08:49:33.524Z,5.9
2018-12-17T08:50:34.968Z,5.9
2018-12-17T08:51:36.735Z,6.0
2018-12-17T08:52:38.179Z,6.0
2018-12-17T08:53:39.799Z,5.9
2018-12-17T08:54:41.375Z,6.0
2018-12-17T08:55:42.838Z,5.9
2018-12-17T08:56:44.561Z,6.0
2018-12-17T08:57:46.006Z,6.0
2018-12-17T08:58:47.512Z,6.0
2018-12-17T08:59:49.253Z,5.9
2018-12-17T09:00:50.730Z,6.0
2018-12-17T09:01:52.171Z,6.1
2018-12-17T09:02:53.829Z,6.1
2018-12-17T09:03:55.313Z,6.1
2018-12-17T09:04:56.749Z,6.1
2018-12-17T09:05:58.351Z,6.0
2018-12-17T09:06:59.813Z,6.1
2018-12-17T09:08:01.385Z,6.2
2018-12-17T09:09:02.896Z,6.1
2018-12-17T09:10:04.477Z,6.1
2018-12-17T09:11:05.931Z,6.2
2018-12-17T09:12:07.359Z,6.2
2018-12-17T09:13:09.001Z,6.2
2018-12-17T09:14:10.451Z,6.2
2018-12-17T09:15:11.911Z,6.2
2018-12-17T09:16:13.568Z,6.2
2018-12-17T09:17:14.995Z,6.3
2018-12-17T09:18:16.460Z,6.3
2018-12-17T09:19:18.062Z,6.4
2018-12-17T09:20:19.511Z,6.3
2018-12-17T09:21:20.967Z,6.4
2018-12-17T09:22:22.624Z,6.4
2018-12-17T09:23:24.073Z,6.4
2018-12-17T09:24:25.496Z,6.4
2018-12-17T09:25:26.956Z,6.5
2018-12-17T09:26:28.404Z,6.4
2018-12-17T09:27:30.055Z,6.5
2018-12-17T09:28:31.478Z,6.5
2018-12-17T09:29:33.088Z,6.5
2018-12-17T09:30:41.129Z,6.5
2018-12-17T09:31:36.124Z,6.4
2018-12-17T09:32:37.520Z,6.5
2018-12-17T09:33:39.204Z,6.4
2018-12-17T09:34:40.657Z,6.4
2018-12-17T09:35:42.296Z,6.4
2018-12-17T09:36:43.693Z,6.4
2018-12-17T09:37:45.377Z,6.4
2018-12-17T09:38:46.773Z,6.4
2018-12-17T09:39:48.468Z,6.4
2018-12-17T09:40:49.918Z,6.4
2018-12-17T09:41:51.311Z,6.4
2018-12-17T09:42:52.994Z,6.5
2018-12-17T09:43:54.418Z,6.5
2018-12-17T09:44:55.877Z,6.5
2018-12-17T09:45:57.577Z,6.5
2018-12-17T09:46:59.028Z,6.5
2018-12-17T09:48:00.693Z,6.5
2018-12-17T09:49:02.178Z,6.5
2018-12-17T09:50:03.698Z,6.5
2018-12-17T09:51:05.178Z,6.5
2018-12-17T09:52:06.621Z,6.5
2018-12-17T09:53:08.276Z,6.6
2018-12-17T09:54:09.911Z,6.5
2018-12-17T09:55:11.330Z,6.6
2018-12-17T09:56:13.016Z,6.6
2018-12-17T09:57:14.481Z,6.6
2018-12-17T09:58:15.923Z,6.6
2018-12-17T09:59:17.482Z,6.6
2018-12-17T10:00:25.186Z,6.6
2018-12-17T10:01:20.248Z,6.6
2018-12-17T10:02:21.810Z,6.6
2018-12-17T10:03:23.259Z,6.7
2018-12-17T10:04:24.925Z,6.7
2018-12-17T10:05:26.391Z,6.7
2018-12-17T10:06:27.837Z,6.7
2018-12-17T10:07:30.566Z,6.7
2018-12-17T10:08:30.841Z,6.7
2018-12-17T10:09:32.335Z,6.7
2018-12-17T10:10:33.981Z,6.7
2018-12-17T10:11:35.503Z,6.7
2018-12-17T10:12:36.982Z,6.8
2018-12-17T10:13:38.771Z,6.8
2018-12-17T10:14:40.313Z,6.8
2018-12-17T10:15:41.982Z,6.9
2018-12-17T10:16:43.483Z,7.0
2018-12-17T10:17:45.091Z,6.9
2018-12-17T10:18:46.535Z,7.0
2018-12-17T10:19:48.149Z,7.0
2018-12-17T10:20:49.677Z,7.0
2018-12-17T10:21:51.236Z,7.0
2018-12-17T10:22:52.680Z,7.0
2018-12-17T10:23:54.331Z,7.0
2018-12-17T10:24:55.781Z,7.1
2018-12-17T10:25:57.464Z,7.2
2018-12-17T10:26:58.841Z,7.1
2018-12-17T10:28:00.256Z,7.2
2018-12-17T10:29:02.007Z,7.2
2018-12-17T10:30:03.429Z,7.3
2018-12-17T10:31:04.913Z,7.3
2018-12-17T10:32:06.476Z,7.3
2018-12-17T10:33:08.089Z,7.3
2018-12-17T10:34:09.889Z,7.4
2018-12-17T10:35:11.331Z,7.2
2018-12-17T10:36:13.061Z,7.3
2018-12-17T10:37:14.513Z,7.4
2018-12-17T10:38:16.167Z,7.4
2018-12-17T10:39:17.653Z,7.3
2018-12-17T10:40:19.225Z,7.4
2018-12-17T10:41:20.688Z,7.4
2018-12-17T10:42:22.248Z,7.3
2018-12-17T10:43:23.791Z,7.3
2018-12-17T10:44:25.311Z,7.4
2018-12-17T10:45:26.772Z,7.3
2018-12-17T10:46:28.262Z,7.4
2018-12-17T10:47:29.860Z,7.3
2018-12-17T10:48:31.425Z,7.3
2018-12-17T10:49:32.860Z,7.3
2018-12-17T10:50:34.358Z,7.3
2018-12-17T10:51:35.834Z,7.3
2018-12-17T10:52:37.352Z,7.4
2018-12-17T10:53:38.925Z,7.4
2018-12-17T10:54:40.658Z,7.4
2018-12-17T10:55:42.104Z,7.4
2018-12-17T10:56:43.552Z,7.4
2018-12-17T10:57:45.169Z,7.4
2018-12-17T10:58:46.591Z,7.4
2018-12-17T10:59:48.033Z,7.4
2018-12-17T11:00:49.668Z,7.4
2018-12-17T11:01:51.105Z,7.4
2018-12-17T11:02:52.545Z,7.4
2018-12-17T11:03:54.186Z,7.4
2018-12-17T11:04:55.609Z,7.4
2018-12-17T11:05:57.270Z,7.4
2018-12-17T11:07:00.359Z,7.3
2018-12-17T11:08:01.728Z,7.4
2018-12-17T11:09:03.406Z,7.4
2018-12-17T11:10:04.808Z,7.4
2018-12-17T11:11:06.336Z,7.4
2018-12-17T11:12:07.937Z,7.4
2018-12-17T11:13:09.332Z,7.4
2018-12-17T11:14:11.021Z,7.4
2018-12-17T11:15:12.419Z,7.4
2018-12-17T11:16:14.104Z,7.4
2018-12-17T11:17:15.528Z,7.4
2018-12-17T11:18:17.190Z,7.6
2018-12-17T11:19:18.586Z,7.5
2018-12-17T11:20:20.275Z,7.4
2018-12-17T11:21:21.674Z,7.4
2018-12-17T11:22:23.441Z,7.4
2018-12-17T11:23:24.808Z,7.4
2018-12-17T11:24:26.445Z,7.5
2018-12-17T11:25:27.850Z,7.5
2018-12-17T11:26:29.545Z,7.5
2018-12-17T11:27:31.010Z,7.6
2018-12-17T11:28:32.669Z,7.6
2018-12-17T11:29:34.085Z,7.6
2018-12-17T11:30:36.152Z,7.4
2018-12-17T11:31:37.588Z,7.6
2018-12-17T11:32:38.969Z,7.5
2018-12-17T11:33:40.376Z,7.5
2018-12-17T11:34:41.891Z,7.6
2018-12-17T11:35:43.555Z,7.6
2018-12-17T11:36:45.033Z,7.6
2018-12-17T11:37:46.441Z,7.6
2018-12-17T11:38:47.848Z,7.7
2018-12-17T11:39:49.509Z,7.6
2018-12-17T11:40:50.901Z,7.6
2018-12-17T11:41:52.579Z,7.7
2018-12-17T11:42:53.983Z,7.6
2018-12-17T11:43:55.678Z,7.5
2018-12-17T11:44:57.127Z,7.5
2018-12-17T11:45:58.801Z,7.6
2018-12-17T11:47:00.236Z,7.6
2018-12-17T11:48:01.876Z,7.6
2018-12-17T11:49:03.328Z,7.6
2018-12-17T11:50:04.955Z,7.6
2018-12-17T11:51:06.386Z,7.6
2018-12-17T11:52:08.078Z,7.5
2018-12-17T11:53:09.514Z,7.6
2018-12-17T11:54:10.927Z,7.6
2018-12-17T11:55:12.577Z,7.6
2018-12-17T11:56:14.002Z,7.6
2018-12-17T11:57:15.451Z,7.5
2018-12-17T11:58:17.112Z,7.5
2018-12-17T11:59:18.570Z,7.6
2018-12-17T12:00:20.177Z,7.6
2018-12-17T12:01:21.635Z,7.7
2018-12-17T12:02:23.458Z,7.6
2018-12-17T12:03:24.894Z,7.6
2018-12-17T12:04:26.542Z,7.8
2018-12-17T12:05:28.262Z,7.9
2018-12-17T12:06:29.832Z,7.8
2018-12-17T12:07:31.326Z,7.9
2018-12-17T12:08:32.769Z,8.0
2018-12-17T12:09:34.350Z,8.1
2018-12-17T12:10:35.753Z,8.1
2018-12-17T12:11:37.160Z,8.1
2018-12-17T12:12:38.674Z,8.2
2018-12-17T12:13:40.086Z,8.1
2018-12-17T12:14:41.500Z,8.2
2018-12-17T12:15:43.186Z,8.3
2018-12-17T12:16:44.599Z,8.2
2018-12-17T12:17:46.005Z,8.2
2018-12-17T12:18:47.507Z,8.1
2018-12-17T12:19:48.903Z,8.1
2018-12-17T12:20:50.301Z,8.1
2018-12-17T12:21:51.829Z,8.0
2018-12-17T12:22:53.225Z,8.1
2018-12-17T12:23:54.621Z,8.0
2018-12-17T12:24:56.150Z,8.0
2018-12-17T12:25:57.549Z,8.0
2018-12-17T12:26:58.945Z,8.1
2018-12-17T12:28:00.472Z,8.1
2018-12-17T12:29:01.864Z,8.1
2018-12-17T12:30:03.569Z,8.1
2018-12-17T12:31:04.960Z,8.2
2018-12-17T12:32:06.645Z,8.2
2018-12-17T12:33:08.046Z,8.2
2018-12-17T12:34:09.445Z,8.2
2018-12-17T12:35:10.964Z,8.2
2018-12-17T12:36:12.360Z,8.1
2018-12-17T12:37:13.762Z,8.3
2018-12-17T12:38:15.287Z,8.3
2018-12-17T12:39:16.685Z,8.1
2018-12-17T12:40:18.085Z,8.2
2018-12-17T12:41:19.512Z,8.3
2018-12-17T12:42:20.903Z,8.2
2018-12-17T12:43:22.488Z,8.2
2018-12-17T12:44:23.887Z,8.1
2018-12-17T12:45:25.578Z,8.3
2018-12-17T12:46:27.132Z,8.2
2018-12-17T12:47:28.663Z,8.3
2018-12-17T12:48:30.062Z,8.2
2018-12-17T12:49:31.456Z,8.2
2018-12-17T12:50:32.979Z,8.1
2018-12-17T12:51:34.376Z,8.2
2018-12-17T12:52:35.779Z,8.3
2018-12-17T12:53:37.303Z,8.2
2018-12-17T12:54:38.700Z,8.3
2018-12-17T12:55:40.393Z,8.4
2018-12-17T12:56:41.787Z,8.5
2018-12-17T12:57:43.474Z,8.5
2018-12-17T12:58:44.878Z,8.5
2018-12-17T12:59:46.277Z,8.4
2018-12-17T13:00:47.795Z,8.5
2018-12-17T13:01:49.195Z,8.4
2018-12-17T13:02:50.591Z,8.4
2018-12-17T13:03:52.117Z,8.5
2018-12-17T13:04:53.517Z,8.5
2018-12-17T13:05:54.910Z,8.5
2018-12-17T13:06:56.436Z,8.5
2018-12-17T13:07:57.840Z,8.5
2018-12-17T13:08:59.236Z,8.4
2018-12-17T13:10:00.761Z,8.4
2018-12-17T13:11:02.162Z,8.3
2018-12-17T13:12:03.568Z,8.3
2018-12-17T13:13:05.123Z,8.3
2018-12-17T13:14:06.912Z,8.2
2018-12-17T13:15:08.318Z,8.3
2018-12-17T13:16:09.814Z,8.1
2018-12-17T13:17:11.211Z,8.1
2018-12-17T13:18:12.612Z,8.2
2018-12-17T13:19:14.135Z,8.1
2018-12-17T13:20:15.529Z,8.1
2018-12-17T13:21:17.217Z,8.1
2018-12-17T13:22:18.630Z,8.1
2018-12-17T13:23:20.310Z,8.0
2018-12-17T13:24:21.713Z,8.0
2018-12-17T13:25:23.109Z,7.9
2018-12-17T13:26:24.705Z,8.0
2018-12-17T13:27:26.073Z,7.9
2018-12-17T13:28:27.466Z,8.0
2018-12-17T13:29:29.152Z,7.8
2018-12-17T13:30:30.550Z,7.9
2018-12-17T13:31:31.949Z,7.9
2018-12-17T13:32:33.479Z,8.0
2018-12-17T13:33:34.871Z,7.9
2018-12-17T13:34:36.271Z,7.8
2018-12-17T13:35:37.793Z,8.0
2018-12-17T13:36:39.192Z,7.8
2018-12-17T13:37:40.593Z,7.9
2018-12-17T13:38:42.115Z,7.9
2018-12-17T13:39:43.518Z,7.8
2018-12-17T13:40:45.201Z,7.9
2018-12-17T13:41:46.599Z,7.9
2018-12-17T13:42:48.292Z,7.8
2018-12-17T13:43:49.684Z,7.8
2018-12-17T13:44:51.373Z,7.9
2018-12-17T13:45:52.767Z,7.8
2018-12-17T13:46:54.460Z,8.0
2018-12-17T13:47:55.855Z,7.9
2018-12-17T13:48:57.540Z,7.9
2018-12-17T13:49:58.936Z,7.9
2018-12-17T13:51:00.431Z,7.9
2018-12-17T13:52:01.827Z,7.8
2018-12-17T13:53:03.513Z,7.9
2018-12-17T13:54:05.022Z,7.9
2018-12-17T13:55:06.399Z,7.9
2018-12-17T13:56:07.803Z,7.9
2018-12-17T13:57:09.480Z,7.8
2018-12-17T13:58:10.876Z,7.9
2018-12-17T13:59:12.567Z,7.9
2018-12-17T14:00:13.969Z,7.9
2018-12-17T14:01:21.619Z,7.8
2018-12-17T14:02:17.010Z,7.9
2018-12-17T14:03:18.525Z,7.8
2018-12-17T14:04:19.930Z,7.8
2018-12-17T14:05:21.329Z,7.9
2018-12-17T14:06:22.855Z,7.8
2018-12-17T14:07:24.254Z,7.8
2018-12-17T14:08:25.655Z,7.8
2018-12-17T14:09:27.178Z,7.8
2018-12-17T14:10:28.573Z,7.9
2018-12-17T14:11:29.972Z,7.8
2018-12-17T14:12:31.496Z,7.8
2018-12-17T14:13:32.895Z,7.8
2018-12-17T14:14:34.305Z,7.8
2018-12-17T14:15:35.824Z,7.7
2018-12-17T14:16:37.217Z,7.8
2018-12-17T14:17:38.617Z,7.8
2018-12-17T14:18:40.010Z,7.8
2018-12-17T14:19:41.416Z,7.8
2018-12-17T14:20:43.020Z,7.8
2018-12-17T14:21:44.419Z,7.7